createdAt,value
2018-04-17T00:00:22.932Z,8.00
2018-04-17T00:02:50.691Z,8.00
2018-04-17T00:05:18.127Z,7.90
2018-04-17T00:07:46.402Z,8.00
2018-04-17T00:10:13.879Z,8.00
2018-04-17T00:12:41.568Z,8.00
2018-04-17T00:15:09.003Z,8.00
2018-04-17T00:17:36.568Z,8.00
2018-04-17T00:20:04.553Z,8.00
2018-04-17T00:22:32.089Z,8.00
2018-04-17T00:24:59.544Z,8.00
2018-04-17T00:27:27.011Z,8.00
2018-04-17T00:29:55.964Z,8.00
2018-04-17T00:32:23.497Z,7.90
2018-04-17T00:34:50.929Z,7.80
2018-04-17T00:37:18.376Z,7.70
2018-04-17T00:39:46.238Z,7.70
2018-04-17T00:42:13.802Z,7.70
2018-04-17T00:44:41.353Z,7.80
2018-04-17T00:47:08.798Z,7.80
2018-04-17T00:49:36.249Z,7.80
2018-04-17T00:52:03.705Z,7.70
2018-04-17T00:54:31.152Z,7.60
2018-04-17T00:56:58.643Z,7.50
2018-04-17T00:59:26.112Z,7.50
2018-04-17T01:01:53.553Z,7.30
2018-04-17T01:04:21.058Z,7.20
2018-04-17T01:06:49.284Z,7.10
2018-04-17T01:09:16.743Z,7.10
2018-04-17T01:11:44.908Z,7.10
2018-04-17T01:14:12.384Z,7.10
2018-04-17T01:16:39.931Z,7.20
2018-04-17T01:19:07.395Z,7.10
2018-04-17T01:21:34.853Z,7.10
2018-04-17T01:24:02.301Z,7.00
2018-04-17T01:26:29.748Z,7.00
2018-04-17T01:28:57.212Z,7.00
2018-04-17T01:31:24.664Z,7.00
2018-04-17T01:33:52.136Z,7.00
2018-04-17T01:36:19.697Z,7.00
2018-04-17T01:38:47.155Z,7.00
2018-04-17T01:41:14.712Z,6.90
2018-04-17T01:43:42.152Z,6.90
2018-04-17T01:46:09.612Z,6.90
2018-04-17T01:48:37.076Z,6.90
2018-04-17T01:51:04.534Z,6.80
2018-04-17T01:53:31.988Z,6.80
2018-04-17T01:56:00.752Z,6.80
2018-04-17T01:58:28.196Z,6.70
2018-04-17T02:00:55.647Z,6.70
2018-04-17T02:03:23.091Z,6.60
2018-04-17T02:05:51.326Z,6.50
2018-04-17T02:08:18.811Z,6.50
2018-04-17T02:10:46.348Z,6.50
2018-04-17T02:13:14.362Z,6.40
2018-04-17T02:15:44.286Z,6.40
2018-04-17T02:18:12.316Z,6.40
2018-04-17T02:20:39.777Z,6.40
2018-04-17T02:23:07.231Z,6.40
2018-04-17T02:25:34.692Z,6.40
2018-04-17T02:28:02.164Z,6.40
2018-04-17T02:30:31.225Z,6.50
2018-04-17T02:32:58.781Z,6.50
2018-04-17T02:35:26.649Z,6.40
2018-04-17T02:37:54.100Z,6.40
2018-04-17T02:40:21.557Z,6.40
2018-04-17T02:42:50.368Z,6.30
2018-04-17T02:45:17.825Z,6.20
2018-04-17T02:47:45.848Z,6.20
2018-04-17T02:50:13.544Z,6.20
2018-04-17T02:52:40.995Z,6.20
2018-04-17T02:55:08.840Z,6.20
2018-04-17T02:57:36.587Z,6.10
2018-04-17T03:00:04.089Z,6.00
2018-04-17T03:02:31.649Z,6.00
2018-04-17T03:04:59.995Z,6.00
2018-04-17T03:07:27.479Z,6.00
2018-04-17T03:09:55.712Z,5.90
2018-04-17T03:12:23.276Z,5.90
2018-04-17T03:14:50.771Z,5.80
2018-04-17T03:17:18.731Z,5.70
2018-04-17T03:19:46.203Z,5.60
2018-04-17T03:22:13.664Z,5.50
2018-04-17T03:24:41.128Z,5.60
2018-04-17T03:27:08.576Z,5.50
2018-04-17T03:29:36.803Z,5.60
2018-04-17T03:32:04.248Z,5.60
2018-04-17T03:34:31.713Z,5.60
2018-04-17T03:36:59.157Z,5.60
2018-04-17T03:39:26.779Z,5.50
2018-04-17T03:41:54.991Z,5.60
2018-04-17T03:44:22.510Z,5.50
2018-04-17T03:46:50.061Z,5.50
2018-04-17T03:49:17.532Z,5.50
2018-04-17T03:51:44.985Z,5.50
2018-04-17T03:54:12.437Z,5.50
2018-04-17T03:56:41.341Z,5.40
2018-04-17T03:59:08.785Z,5.40
2018-04-17T04:01:38.288Z,5.30
2018-04-17T04:04:05.750Z,5.30
2018-04-17T04:06:34.565Z,5.40
2018-04-17T04:09:02.788Z,5.40
2018-04-17T04:11:30.506Z,5.30
2018-04-17T04:13:58.739Z,5.30
2018-04-17T04:16:38.025Z,5.30
2018-04-17T04:19:17.355Z,5.30
2018-04-17T04:21:57.088Z,5.20
2018-04-17T04:24:37.212Z,5.30
2018-04-17T04:27:05.443Z,5.30
2018-04-17T04:29:32.909Z,5.30
2018-04-17T04:32:00.401Z,5.30
2018-04-17T04:34:28.620Z,5.30
2018-04-17T04:36:56.131Z,5.30
2018-04-17T04:39:23.587Z,5.40
2018-04-17T04:41:51.048Z,5.40
2018-04-17T04:44:20.040Z,5.50
2018-04-17T04:46:47.500Z,5.50
2018-04-17T04:49:15.067Z,5.60
2018-04-17T04:51:42.538Z,5.60
2018-04-17T04:54:10.760Z,5.60
2018-04-17T04:56:38.212Z,5.60
2018-04-17T04:59:06.112Z,5.60
2018-04-17T05:01:33.565Z,5.60
2018-04-17T05:04:01.035Z,5.70
2018-04-17T05:06:28.480Z,5.80
2018-04-17T05:08:56.042Z,5.80
2018-04-17T05:11:24.269Z,6.00
2018-04-17T05:13:51.727Z,6.00
2018-04-17T05:16:19.188Z,6.20
2018-04-17T05:18:46.654Z,6.30
2018-04-17T05:21:14.116Z,6.40
2018-04-17T05:23:41.615Z,6.50
2018-04-17T05:26:09.020Z,6.70
2018-04-17T05:28:36.500Z,6.80
2018-04-17T05:31:03.952Z,7.00
2018-04-17T05:33:31.407Z,7.10
2018-04-17T05:35:58.863Z,7.20
2018-04-17T05:38:26.708Z,7.40
2018-04-17T05:40:54.424Z,7.60
2018-04-17T05:43:21.877Z,7.70
2018-04-17T05:45:49.328Z,7.90
2018-04-17T05:48:17.204Z,8.00
2018-04-17T05:50:44.656Z,8.20
2018-04-17T05:53:12.830Z,8.40
2018-04-17T05:55:40.283Z,8.60
2018-04-17T05:58:08.436Z,8.80
2018-04-17T06:00:35.906Z,9.10
2018-04-17T06:03:03.356Z,9.40
2018-04-17T06:05:30.811Z,9.60
2018-04-17T06:07:58.497Z,10.50
2018-04-17T06:10:25.949Z,11.70
2018-04-17T06:12:53.411Z,13.00
2018-04-17T06:15:21.077Z,14.10
2018-04-17T06:17:48.525Z,15.10
2018-04-17T06:20:15.983Z,15.70
2018-04-17T06:22:43.455Z,16.40
2018-04-17T06:25:11.528Z,17.10
2018-04-17T06:27:40.172Z,18.60
2018-04-17T06:30:08.572Z,18.50
2018-04-17T06:32:36.027Z,19.10
2018-04-17T06:35:03.488Z,19.40
2018-04-17T06:37:33.484Z,19.60
2018-04-17T06:40:00.943Z,19.50
2018-04-17T06:42:28.783Z,19.20
2018-04-17T06:44:56.303Z,19.40
2018-04-17T06:47:24.529Z,19.30
2018-04-17T06:49:52.513Z,19.20
2018-04-17T06:52:19.968Z,19.00
2018-04-17T06:54:47.430Z,19.40
2018-04-17T06:57:16.724Z,19.80
2018-04-17T06:59:44.729Z,20.00
2018-04-17T07:02:13.336Z,20.40
2018-04-17T07:04:40.848Z,20.40
2018-04-17T07:07:08.573Z,20.70
2018-04-17T07:09:36.614Z,20.90
2018-04-17T07:12:04.859Z,20.60
2018-04-17T07:14:32.336Z,20.60
2018-04-17T07:17:00.560Z,21.20
2018-04-17T07:19:28.405Z,21.10
2018-04-17T07:21:55.857Z,21.60
2018-04-17T07:24:23.796Z,21.80
2018-04-17T07:26:51.335Z,22.30
2018-04-17T07:29:18.799Z,22.30
2018-04-17T07:31:46.263Z,22.10
2018-04-17T07:34:13.716Z,22.50
2018-04-17T07:36:41.263Z,22.80
2018-04-17T07:39:09.847Z,22.90
2018-04-17T07:41:37.407Z,23.20
2018-04-17T07:44:04.888Z,22.80
2018-04-17T07:46:33.112Z,22.00
2018-04-17T07:49:07.141Z,22.00
2018-04-17T07:51:34.614Z,21.90
2018-04-17T07:54:02.512Z,21.30
2018-04-17T07:56:30.744Z,21.10
2018-04-17T07:58:58.203Z,21.00
2018-04-17T08:01:25.655Z,21.50
2018-04-17T08:03:53.221Z,21.90
2018-04-17T08:06:20.683Z,22.10
2018-04-17T08:08:48.447Z,21.90
2018-04-17T08:11:15.908Z,21.90
2018-04-17T08:13:44.346Z,21.60
2018-04-17T08:16:12.066Z,21.70
2018-04-17T08:18:39.527Z,21.70
2018-04-17T08:21:06.976Z,21.40
2018-04-17T08:23:34.516Z,21.60
2018-04-17T08:26:02.078Z,21.70
2018-04-17T08:28:30.072Z,21.70
2018-04-17T08:30:58.300Z,21.20
2018-04-17T08:33:26.230Z,21.20
2018-04-17T08:35:54.451Z,20.50
2018-04-17T08:38:22.475Z,20.40
2018-04-17T08:40:50.529Z,20.60
2018-04-17T08:43:18.748Z,21.50
2018-04-17T08:45:47.849Z,21.50
2018-04-17T08:48:15.716Z,21.80
2018-04-17T08:50:43.180Z,22.20
2018-04-17T08:53:10.775Z,22.90
2018-04-17T08:55:39.037Z,23.20
2018-04-17T08:58:06.504Z,23.20
2018-04-17T09:00:34.243Z,23.00
2018-04-17T09:03:02.163Z,22.50
2018-04-17T09:05:30.430Z,22.60
2018-04-17T09:07:59.068Z,22.00
2018-04-17T09:10:26.535Z,22.00
2018-04-17T09:12:54.588Z,22.80
2018-04-17T09:15:22.069Z,23.50
2018-04-17T09:17:49.527Z,24.00
2018-04-17T09:20:17.527Z,24.30
2018-04-17T09:22:45.751Z,24.80
2018-04-17T09:25:13.224Z,24.80
2018-04-17T09:27:40.783Z,25.20
2018-04-17T09:30:08.260Z,25.20
2018-04-17T09:32:36.489Z,25.60
2018-04-17T09:35:04.367Z,25.60
2018-04-17T09:37:31.844Z,25.70
2018-04-17T09:39:59.406Z,26.00
2018-04-17T09:42:26.903Z,26.30
2018-04-17T09:44:54.321Z,26.70
2018-04-17T09:47:21.968Z,26.60
2018-04-17T09:49:49.548Z,25.90
2018-04-17T09:52:17.784Z,25.40
2018-04-17T09:54:45.272Z,25.30
2018-04-17T09:57:13.339Z,24.60
2018-04-17T09:59:41.567Z,25.00
2018-04-17T10:02:09.076Z,25.00
2018-04-17T10:04:36.608Z,24.60
2018-04-17T10:07:04.064Z,24.30
2018-04-17T10:09:31.536Z,24.10
2018-04-17T10:11:58.987Z,24.40
2018-04-17T10:14:26.449Z,24.20
2018-04-17T10:16:54.432Z,24.50
2018-04-17T10:19:21.900Z,24.50
2018-04-17T10:21:49.352Z,24.60
2018-04-17T10:24:16.965Z,25.10
2018-04-17T10:26:44.676Z,25.70
2018-04-17T10:29:12.119Z,26.00
2018-04-17T10:31:39.650Z,26.40
2018-04-17T10:34:07.135Z,26.90
2018-04-17T10:36:35.068Z,27.20
2018-04-17T10:39:02.835Z,26.60
2018-04-17T10:41:30.293Z,27.10
2018-04-17T10:43:57.796Z,27.20
2018-04-17T10:46:25.391Z,27.40
2018-04-17T10:48:52.967Z,26.80
2018-04-17T10:51:20.477Z,26.80
2018-04-17T10:53:48.175Z,26.50
2018-04-17T10:56:15.677Z,26.20
2018-04-17T10:58:43.133Z,26.00
2018-04-17T11:01:10.595Z,25.40
2018-04-17T11:03:38.027Z,25.60
2018-04-17T11:06:06.052Z,24.80
2018-04-17T11:08:34.260Z,24.50
2018-04-17T11:11:01.824Z,24.50
2018-04-17T11:13:29.372Z,25.00
2018-04-17T11:15:56.829Z,25.10
2018-04-17T11:18:24.331Z,25.60
2018-04-17T11:20:53.324Z,26.30
2018-04-17T11:23:20.880Z,26.30
2018-04-17T11:25:48.343Z,26.20
2018-04-17T11:28:16.044Z,26.00
2018-04-17T11:30:43.571Z,26.10
2018-04-17T11:33:12.040Z,25.30
2018-04-17T11:35:39.669Z,25.30
2018-04-17T11:38:08.073Z,25.50
2018-04-17T11:40:35.521Z,25.50
2018-04-17T11:43:03.048Z,25.10
2018-04-17T11:45:30.452Z,25.20
2018-04-17T11:47:58.015Z,25.00
2018-04-17T11:50:25.635Z,24.80
2018-04-17T11:52:53.077Z,24.40
2018-04-17T11:55:20.553Z,24.60
2018-04-17T11:57:48.039Z,24.90
2018-04-17T12:00:15.520Z,25.00
2018-04-17T12:02:44.476Z,25.50
2018-04-17T12:05:11.967Z,25.50
2018-04-17T12:07:39.508Z,25.60
2018-04-17T12:10:07.064Z,25.70
2018-04-17T12:12:34.628Z,25.70
2018-04-17T12:15:02.105Z,25.40
2018-04-17T12:17:30.743Z,25.10
2018-04-17T12:19:58.218Z,25.10
2018-04-17T12:22:26.472Z,25.50
2018-04-17T12:24:53.925Z,25.70
2018-04-17T12:27:21.781Z,26.00
2018-04-17T12:29:49.279Z,26.20
2018-04-17T12:32:16.832Z,25.90
2018-04-17T12:34:44.283Z,25.30
2018-04-17T12:37:11.758Z,25.30
2018-04-17T12:39:39.208Z,25.20
2018-04-17T12:42:06.651Z,25.30
2018-04-17T12:44:34.116Z,25.40
2018-04-17T12:47:01.566Z,25.30
2018-04-17T12:49:29.564Z,25.60
2018-04-17T12:51:57.022Z,25.20
2018-04-17T12:54:24.465Z,25.30
2018-04-17T12:56:52.113Z,25.40
2018-04-17T12:59:19.581Z,24.90
2018-04-17T13:01:47.600Z,24.80
2018-04-17T13:04:15.122Z,25.00
2018-04-17T13:06:42.631Z,25.10
2018-04-17T13:09:10.075Z,25.40
2018-04-17T13:11:37.616Z,25.60
2018-04-17T13:14:05.891Z,26.60
2018-04-17T13:16:34.120Z,26.50
2018-04-17T13:19:02.092Z,26.50
2018-04-17T13:21:29.655Z,26.20
2018-04-17T13:23:57.115Z,26.20
2018-04-17T13:26:24.711Z,26.50
2018-04-17T13:28:52.176Z,26.90
2018-04-17T13:31:20.913Z,26.70
2018-04-17T13:33:48.784Z,26.70
2018-04-17T13:36:16.498Z,26.70
2018-04-17T13:38:44.825Z,27.00
2018-04-17T13:41:12.288Z,27.00
2018-04-17T13:43:39.736Z,27.40
2018-04-17T13:46:07.217Z,27.90
2018-04-17T13:48:34.664Z,28.20
2018-04-17T13:51:02.116Z,28.70
2018-04-17T13:53:29.964Z,29.00
2018-04-17T13:55:57.860Z,28.50
2018-04-17T13:58:25.399Z,28.40
2018-04-17T14:00:52.875Z,28.30
2018-04-17T14:03:20.803Z,28.40
2018-04-17T14:05:48.278Z,29.00
2018-04-17T14:08:15.731Z,28.80
2018-04-17T14:10:43.184Z,28.70
2018-04-17T14:13:10.949Z,29.10
2018-04-17T14:15:38.667Z,29.50
2018-04-17T14:18:06.910Z,29.00
2018-04-17T14:20:37.655Z,29.00
2018-04-17T14:23:05.191Z,28.70
2018-04-17T14:25:32.695Z,28.70
2018-04-17T14:28:06.669Z,29.00
2018-04-17T14:30:34.389Z,29.00
2018-04-17T14:33:01.855Z,29.10
2018-04-17T14:35:30.204Z,29.10
2018-04-17T14:37:58.568Z,27.90
2018-04-17T14:40:26.792Z,27.70
2018-04-17T14:42:54.248Z,27.60
2018-04-17T14:45:22.467Z,27.90
2018-04-17T14:47:51.116Z,29.50
2018-04-17T14:50:18.988Z,29.50
2018-04-17T14:52:46.460Z,30.70
2018-04-17T14:55:15.024Z,32.00
2018-04-17T14:57:42.509Z,31.90
2018-04-17T15:00:11.469Z,31.50
2018-04-17T15:02:38.948Z,31.50
2018-04-17T15:05:07.028Z,32.00
2018-04-17T15:07:34.496Z,32.40
2018-04-17T15:10:02.748Z,32.90
2018-04-17T15:12:30.787Z,32.90
2018-04-17T15:15:00.076Z,32.70
2018-04-17T15:17:27.526Z,32.00
2018-04-17T15:19:55.750Z,31.40
2018-04-17T15:22:23.297Z,31.40
2018-04-17T15:24:50.751Z,30.80
2018-04-17T15:27:18.764Z,30.90
2018-04-17T15:29:47.008Z,30.60
2018-04-17T15:32:21.581Z,30.60
2018-04-17T15:34:50.303Z,31.90
2018-04-17T15:37:18.760Z,31.80
2018-04-17T15:39:46.265Z,32.10
2018-04-17T15:42:15.475Z,31.80
2018-04-17T15:44:44.779Z,31.10
2018-04-17T15:47:12.417Z,30.20
2018-04-17T15:49:39.878Z,29.30
2018-04-17T15:52:07.335Z,29.10
2018-04-17T15:54:34.796Z,28.90
2018-04-17T15:57:02.448Z,29.30
2018-04-17T15:59:29.900Z,30.40
2018-04-17T16:01:57.372Z,31.30
2018-04-17T16:04:24.827Z,32.30
2018-04-17T16:06:52.307Z,32.10
2018-04-17T16:09:20.516Z,31.80
2018-04-17T16:11:47.971Z,31.80
2018-04-17T16:14:15.860Z,30.90
2018-04-17T16:16:43.309Z,30.30
2018-04-17T16:19:11.919Z,30.40
2018-04-17T16:21:39.372Z,30.60
2018-04-17T16:24:06.836Z,30.90
2018-04-17T16:26:34.391Z,30.50
2018-04-17T16:29:01.844Z,30.10
2018-04-17T16:31:29.301Z,29.40
2018-04-17T16:33:56.852Z,29.10
2018-04-17T16:36:24.302Z,28.80
2018-04-17T16:38:52.212Z,28.80
2018-04-17T16:41:19.692Z,29.10
2018-04-17T16:43:47.924Z,28.60
2018-04-17T16:46:17.421Z,28.50
2018-04-17T16:48:44.885Z,27.90
2018-04-17T16:51:12.370Z,27.70
2018-04-17T16:53:40.236Z,27.30
2018-04-17T16:56:07.769Z,26.80
2018-04-17T16:58:35.222Z,26.50
2018-04-17T17:01:02.680Z,26.50
2018-04-17T17:03:30.424Z,26.80
2018-04-17T17:05:57.904Z,26.90
2018-04-17T17:08:25.351Z,27.20
2018-04-17T17:10:52.836Z,27.40
2018-04-17T17:13:20.396Z,27.70
2018-04-17T17:15:47.848Z,28.10
2018-04-17T17:18:15.433Z,28.30
2018-04-17T17:20:43.723Z,27.30
2018-04-17T17:23:11.606Z,27.30
2018-04-17T17:25:39.069Z,26.30
2018-04-17T17:28:06.526Z,25.30
2018-04-17T17:30:34.120Z,24.80
2018-04-17T17:33:01.580Z,24.50
2018-04-17T17:35:29.033Z,23.90
2018-04-17T17:37:57.068Z,23.50
2018-04-17T17:40:24.527Z,23.10
2018-04-17T17:42:52.023Z,22.50
2018-04-17T17:45:19.581Z,21.90
2018-04-17T17:47:47.052Z,21.40
2018-04-17T17:50:14.532Z,21.00
2018-04-17T17:52:42.012Z,20.70
2018-04-17T17:55:09.467Z,20.40
2018-04-17T17:57:36.920Z,20.10
2018-04-17T18:00:04.368Z,19.80
2018-04-17T18:02:31.881Z,19.60
2018-04-17T18:04:59.399Z,19.30
2018-04-17T18:07:26.797Z,19.10
2018-04-17T18:09:54.260Z,18.80
2018-04-17T18:12:22.534Z,18.60
2018-04-17T18:14:49.981Z,18.40
2018-04-17T18:17:17.545Z,18.20
2018-04-17T18:19:45.613Z,18.00
2018-04-17T18:22:13.165Z,17.70
2018-04-17T18:24:40.619Z,17.40
2018-04-17T18:27:08.188Z,17.20
2018-04-17T18:29:35.653Z,17.00
2018-04-17T18:32:03.110Z,16.80
2018-04-17T18:34:30.563Z,16.60
2018-04-17T18:36:58.202Z,16.30
2018-04-17T18:39:25.680Z,16.10
2018-04-17T18:41:53.141Z,15.90
2018-04-17T18:44:20.597Z,15.70
2018-04-17T18:46:48.048Z,15.50
2018-04-17T18:49:15.609Z,15.30
2018-04-17T18:51:43.069Z,15.20
2018-04-17T18:54:10.636Z,15.00
2018-04-17T18:56:38.184Z,14.90
2018-04-17T18:59:05.645Z,14.70
2018-04-17T19:01:33.119Z,14.60
2018-04-17T19:04:01.372Z,14.40
2018-04-17T19:06:28.857Z,14.40
2018-04-17T19:08:56.760Z,14.30
2018-04-17T19:11:24.209Z,14.20
2018-04-17T19:13:51.713Z,14.10
2018-04-17T19:16:19.269Z,14.00
2018-04-17T19:18:47.488Z,13.90
2018-04-17T19:21:14.968Z,13.90
2018-04-17T19:23:42.407Z,13.80
2018-04-17T19:26:09.920Z,13.80
2018-04-17T19:28:37.383Z,13.80
2018-04-17T19:31:04.832Z,13.60
2018-04-17T19:33:32.492Z,13.60
2018-04-17T19:35:59.952Z,13.50
2018-04-17T19:38:27.411Z,13.50
2018-04-17T19:40:54.880Z,13.40
2018-04-17T19:43:22.338Z,13.40
2018-04-17T19:45:49.784Z,13.40
2018-04-17T19:48:17.655Z,13.30
2018-04-17T19:50:45.515Z,13.20
2018-04-17T19:53:12.980Z,13.20
2018-04-17T19:55:41.256Z,13.20
2018-04-17T19:58:08.788Z,13.10
2018-04-17T20:00:36.486Z,13.10
2018-04-17T20:03:03.938Z,13.20
2018-04-17T20:05:31.479Z,13.10
2018-04-17T20:07:59.362Z,13.10
2018-04-17T20:10:27.409Z,13.00
2018-04-17T20:12:54.852Z,13.00
2018-04-17T20:15:23.030Z,12.90
2018-04-17T20:17:50.604Z,12.90
2018-04-17T20:20:18.496Z,12.80
2018-04-17T20:22:46.276Z,12.60
2018-04-17T20:25:14.512Z,12.40
2018-04-17T20:27:42.706Z,12.30
2018-04-17T20:30:10.580Z,12.30
2018-04-17T20:32:38.799Z,12.10
2018-04-17T20:35:06.256Z,12.10
2018-04-17T20:37:33.738Z,12.10
2018-04-17T20:40:01.302Z,12.10
2018-04-17T20:42:28.751Z,12.00
2018-04-17T20:44:56.208Z,12.00
2018-04-17T20:47:23.772Z,11.90
2018-04-17T20:49:51.232Z,11.80
2018-04-17T20:52:18.683Z,11.70
2018-04-17T20:54:46.157Z,11.70
2018-04-17T20:57:13.712Z,11.60
2018-04-17T20:59:41.260Z,11.50
2018-04-17T21:02:09.030Z,11.30
2018-04-17T21:04:43.107Z,11.30
2018-04-17T21:07:12.225Z,11.30
2018-04-17T21:09:39.698Z,11.40
2018-04-17T21:12:07.251Z,11.30
2018-04-17T21:14:35.128Z,11.30
2018-04-17T21:17:02.600Z,11.30
2018-04-17T21:19:30.816Z,11.30
2018-04-17T21:22:01.546Z,11.20
2018-04-17T21:24:28.993Z,11.20
2018-04-17T21:26:56.555Z,11.20
2018-04-17T21:29:24.071Z,11.10
2018-04-17T21:31:51.520Z,11.00
2018-04-17T21:34:19.809Z,11.00
2018-04-17T21:36:47.264Z,10.90
2018-04-17T21:39:14.813Z,10.90
2018-04-17T21:41:43.115Z,10.80
2018-04-17T21:44:11.323Z,10.60
2018-04-17T21:46:39.052Z,10.60
2018-04-17T21:49:06.488Z,10.60
2018-04-17T21:51:35.911Z,10.60
2018-04-17T21:54:04.239Z,10.60
2018-04-17T21:56:31.928Z,10.70
2018-04-17T21:59:00.520Z,10.70
2018-04-17T22:01:29.037Z,10.80
2018-04-17T22:03:56.479Z,10.80
2018-04-17T22:06:25.092Z,10.90
2018-04-17T22:08:52.536Z,10.80
2018-04-17T22:11:20.001Z,10.80
2018-04-17T22:13:47.452Z,10.80
2018-04-17T22:16:15.322Z,10.80
2018-04-17T22:18:42.824Z,10.80
2018-04-17T22:21:10.283Z,10.70
2018-04-17T22:23:38.288Z,10.60
2018-04-17T22:26:06.507Z,10.40
2018-04-17T22:28:34.357Z,10.40
2018-04-17T22:31:02.241Z,10.30
2018-04-17T22:33:30.523Z,10.20
2018-04-17T22:35:57.980Z,10.20
2018-04-17T22:38:27.052Z,10.10
2018-04-17T22:40:55.405Z,10.10
2018-04-17T22:43:23.620Z,9.90
2018-04-17T22:45:51.063Z,9.90
2018-04-17T22:48:18.514Z,9.80
2018-04-17T22:50:46.732Z,9.70
2018-04-17T22:53:14.190Z,9.60
2018-04-17T22:55:41.645Z,9.50
2018-04-17T22:58:09.091Z,9.40
2018-04-17T23:00:36.535Z,9.40
2018-04-17T23:03:04.012Z,9.30
2018-04-17T23:05:31.455Z,9.20
2018-04-17T23:07:58.908Z,9.10
2018-04-17T23:10:26.380Z,9.10
2018-04-17T23:12:54.395Z,9.10
2018-04-17T23:15:22.601Z,9.10
2018-04-17T23:17:50.093Z,9.10
2018-04-17T23:20:17.992Z,9.10
2018-04-17T23:22:46.553Z,8.90
2018-04-17T23:25:14.576Z,8.90
2018-04-17T23:27:42.047Z,8.80
2018-04-17T23:30:09.907Z,8.70
2018-04-17T23:32:37.364Z,8.80
2018-04-17T23:35:04.813Z,8.80
2018-04-17T23:37:32.265Z,8.80
2018-04-17T23:39:59.755Z,8.70
2018-04-17T23:42:27.220Z,8.60
2018-04-17T23:44:55.499Z,8.60
2018-04-17T23:47:23.358Z,8.60
2018-04-17T23:49:50.841Z,8.50
2018-04-17T23:52:19.655Z,8.40
2018-04-17T23:54:47.096Z,8.40
2018-04-17T23:57:15.332Z,8.40
2018-04-17T23:59:43.295Z,8.30
